Time;durP1;ratioP1;P1;durP2;ratioP2;P2;SDS_P1;SDS_P2;PMS_P1;PMS_P2;Temp;Humidity;BMP_temperature;BMP_pressure;BME280_temperature;BME280_humidity;BME280_pressure;Samples;Min_cycle;Max_cycle;Signal;HPM_P1;HPM_P2
2021/10/14 00:02:10;;;;;;;10.55;9.28;;;;;;;10.37;94.49;99971.87;1875057;76;21216;-63
2021/10/14 00:05:17;;;;;;;10.63;8.63;;;;;;;10.37;94.48;99969.13;1847737;77;21192;-64
2021/10/14 00:08:23;;;;;;;9.38;7.92;;;;;;;10.37;94.59;99965.89;1875088;76;21370;-63
2021/10/14 00:11:29;;;;;;;9.00;6.60;;;;;;;10.40;94.62;99965.52;1875068;76;21347;-64
2021/10/14 00:14:35;;;;;;;7.42;6.45;;;;;;;10.43;94.55;99971.16;1872602;76;21274;-65
2021/10/14 00:17:42;;;;;;;8.08;5.87;;;;;;;10.44;94.39;99974.21;1874975;76;21346;-64
2021/10/14 00:20:48;;;;;;;6.00;5.40;;;;;;;10.42;94.23;99968.92;1874899;76;21330;-63
2021/10/14 00:23:55;;;;;;;5.83;4.55;;;;;;;10.39;94.00;99966.56;1847610;77;21331;-64
2021/10/14 00:27:01;;;;;;;6.92;5.05;;;;;;;10.38;94.00;99967.61;1874966;76;21318;-66
2021/10/14 00:30:07;;;;;;;5.47;4.72;;;;;;;10.39;93.88;99976.65;1875041;76;21350;-64
2021/10/14 00:33:13;;;;;;;5.78;4.83;;;;;;;10.37;93.71;99985.04;1875024;76;21318;-66
2021/10/14 00:36:21;;;;;;;4.65;4.15;;;;;;;10.37;93.51;99985.04;1848147;76;21358;-64
2021/10/14 00:39:27;;;;;;;4.92;4.42;;;;;;;10.33;93.36;99993.30;1875085;76;21200;-63
2021/10/14 00:42:35;;;;;;;4.80;4.30;;;;;;;10.31;93.32;99987.15;1874983;76;21216;-64
2021/10/14 00:45:41;;;;;;;5.15;4.58;;;;;;;10.29;93.32;99993.31;1875075;76;21386;-63
2021/10/14 00:48:49;;;;;;;5.22;4.50;;;;;;;10.29;93.30;99991.95;1875022;76;21811;-68
2021/10/14 00:51:56;;;;;;;4.67;4.17;;;;;;;10.27;93.07;100004.13;1839121;78;21879;-67
2021/10/14 00:55:02;;;;;;;4.50;4.00;;;;;;;10.26;92.97;100010.61;1847676;77;21365;-63
2021/10/14 00:58:07;;;;;;;5.53;4.70;;;;;;;10.21;92.96;100007.05;1874845;76;21906;-64
2021/10/14 01:01:13;;;;;;;5.47;4.65;;;;;;;10.19;92.79;100020.59;1875000;76;21401;-66
2021/10/14 01:04:19;;;;;;;5.10;4.58;;;;;;;10.13;92.77;100014.49;1850042;76;21303;-67
2021/10/14 01:07:26;;;;;;;5.70;4.50;;;;;;;10.09;92.69;100024.08;1875094;76;21303;-65
2021/10/14 01:10:32;;;;;;;5.03;4.53;;;;;;;10.06;92.72;100029.88;1875127;76;21332;-63
2021/10/14 01:13:37;;;;;;;6.37;4.78;;;;;;;10.00;92.85;100027.37;1875078;76;21212;-65
2021/10/14 01:16:49;;;;;;;5.30;4.80;;;;;;;9.97;93.11;100028.23;1863440;76;21681;-66
2021/10/14 01:19:56;;;;;;;6.95;5.50;;;;;;;9.87;93.73;100038.03;1838926;77;21355;-66
2021/10/14 01:23:02;;;;;;;6.87;5.28;;;;;;;9.87;93.73;100038.03;1838747;78;21197;-66
2021/10/14 01:26:08;;;;;;;5.70;4.85;;;;;;;9.84;94.07;100038.40;1863110;77;21355;-65
2021/10/14 01:29:15;;;;;;;6.25;5.10;;;;;;;9.82;94.35;100039.08;1863361;77;21832;-66
2021/10/14 01:32:21;;;;;;;5.60;5.05;;;;;;;9.83;94.61;100044.05;1863350;77;21215;-67
2021/10/14 01:35:27;;;;;;;5.83;5.25;;;;;;;9.81;94.80;100044.23;1838853;77;21666;-67
2021/10/14 01:38:32;;;;;;;6.70;5.22;;;;;;;9.81;94.93;100053.80;1834341;77;21706;-64
2021/10/14 01:41:38;;;;;;;6.70;5.33;;;;;;;9.81;95.09;100054.30;1808115;78;21362;-65
2021/10/14 01:44:45;;;;;;;7.00;5.35;;;;;;;9.82;95.20;100051.38;1800539;79;22226;-65
2021/10/14 01:47:51;;;;;;;5.40;4.70;;;;;;;9.87;95.31;100059.91;1770815;79;21347;-66
2021/10/14 01:50:57;;;;;;;5.50;4.90;;;;;;;9.87;95.21;100064.51;1767725;81;21252;-67
2021/10/14 01:54:03;;;;;;;6.50;4.90;;;;;;;9.86;95.21;100060.09;1767917;81;21350;-66
2021/10/14 01:57:13;;;;;;;7.60;4.70;;;;;;;9.84;95.27;100060.27;1768109;80;21217;-64
2021/10/14 02:00:20;;;;;;;5.30;4.80;;;;;;;9.83;95.37;100075.48;1768124;81;21350;-66
2021/10/14 02:03:25;;;;;;;5.33;4.42;;;;;;;9.84;95.45;100078.55;1784765;80;21323;-65
2021/10/14 02:06:30;;;;;;;5.67;4.75;;;;;;;9.85;95.59;100076.99;1834906;78;21161;-65
2021/10/14 02:09:37;;;;;;;5.53;4.60;;;;;;;9.85;95.64;100079.73;1803212;78;21208;-64
2021/10/14 02:12:47;;;;;;;6.08;5.10;;;;;;;9.86;95.65;100077.31;1768065;81;21832;-65
2021/10/14 02:15:55;;;;;;;5.47;4.97;;;;;;;9.85;95.68;100080.23;1769139;80;21228;-65
2021/10/14 02:19:02;;;;;;;6.00;4.95;;;;;;;9.82;95.73;100088.80;1757670;81;21209;-62
2021/10/14 02:22:08;;;;;;;5.55;5.05;;;;;;;9.81;95.86;100088.47;1743099;82;21347;-63
2021/10/14 02:25:16;;;;;;;7.70;5.10;;;;;;;9.75;95.91;100092.75;1757831;81;21358;-63
2021/10/14 02:28:22;;;;;;;6.62;5.33;;;;;;;9.71;96.03;100101.48;1771032;80;21216;-63
2021/10/14 02:31:29;;;;;;;6.55;5.25;;;;;;;9.68;96.27;100102.70;1735569;81;21208;-64
2021/10/14 02:34:36;;;;;;;6.12;5.10;;;;;;;9.65;96.36;100107.16;1841162;77;21246;-63
2021/10/14 02:37:42;;;;;;;7.87;5.87;;;;;;;9.61;96.37;100105.80;1840986;78;21192;-63
2021/10/14 02:40:50;;;;;;;6.78;5.78;;;;;;;9.57;96.45;100114.02;1840860;78;21207;-64
2021/10/14 02:43:55;;;;;;;7.67;5.50;;;;;;;9.54;96.57;100119.84;1840912;78;21219;-63
2021/10/14 02:47:01;;;;;;;9.18;5.65;;;;;;;9.49;96.70;100110.45;1840996;78;21270;-63
2021/10/14 02:50:08;;;;;;;7.42;6.15;;;;;;;9.47;96.98;100122.92;1815294;78;21338;-63
2021/10/14 02:53:15;;;;;;;9.15;5.87;;;;;;;9.45;97.20;100126.88;1814797;78;21296;-63
2021/10/14 02:56:22;;;;;;;7.08;6.37;;;;;;;9.41;97.41;100124.99;1840818;78;21727;-62
2021/10/14 02:59:26;;;;;;;7.97;6.22;;;;;;;9.39;97.64;100138.50;1841001;78;21885;-63
2021/10/14 03:02:33;;;;;;;9.03;6.90;;;;;;;9.37;97.79;100136.45;1840783;78;21184;-63
2021/10/14 03:05:40;;;;;;;9.43;7.47;;;;;;;9.37;97.97;100141.38;1840803;78;21277;-63
2021/10/14 03:08:47;;;;;;;8.03;6.95;;;;;;;9.35;98.05;100140.72;1834527;77;21256;-64
2021/10/14 03:11:52;;;;;;;8.40;7.40;;;;;;;9.34;98.14;100136.27;1790215;80;21235;-62
2021/10/14 03:14:57;;;;;;;8.45;7.50;;;;;;;9.31;98.19;100136.61;1786102;79;21202;-63
2021/10/14 03:18:03;;;;;;;8.00;6.78;;;;;;;9.28;98.32;100153.36;1805990;78;21404;-63
2021/10/14 03:21:11;;;;;;;8.43;7.15;;;;;;;9.26;98.44;100171.78;1829469;78;21782;-62
2021/10/14 03:24:16;;;;;;;10.82;7.33;;;;;;;9.26;98.54;100181.88;1829286;78;21320;-64
2021/10/14 03:27:21;;;;;;;9.33;7.42;;;;;;;9.24;98.50;100192.98;1818509;78;21249;-64
2021/10/14 03:30:27;;;;;;;9.45;7.05;;;;;;;9.21;98.48;100185.63;1825787;78;21296;-66
2021/10/14 03:33:33;;;;;;;9.68;6.83;;;;;;;9.17;98.32;100202.00;1805872;79;21918;-64
2021/10/14 03:36:40;;;;;;;8.25;6.80;;;;;;;9.13;98.19;100182.41;1846304;77;21343;-62
2021/10/14 03:39:46;;;;;;;9.70;7.50;;;;;;;9.10;98.12;100186.84;1846200;77;21264;-64
2021/10/14 03:42:53;;;;;;;8.88;6.83;;;;;;;9.08;98.11;100199.27;1846108;77;21300;-64
2021/10/14 03:46:00;;;;;;;9.75;7.08;;;;;;;9.07;98.01;100199.45;1846291;77;21332;-65
2021/10/14 03:49:06;;;;;;;8.38;6.83;;;;;;;9.07;97.94;100211.73;1846182;77;21237;-67
2021/10/14 03:52:12;;;;;;;9.45;7.22;;;;;;;9.04;97.88;100212.94;1846157;77;21225;-63
2021/10/14 03:55:17;;;;;;;8.50;6.50;;;;;;;9.05;97.77;100219.27;1846222;77;21371;-65
2021/10/14 03:58:26;;;;;;;9.28;7.03;;;;;;;9.02;97.58;100216.87;1846303;77;21158;-66
2021/10/14 04:01:33;;;;;;;8.10;6.35;;;;;;;9.02;97.46;100229.16;1829125;77;21233;-64
2021/10/14 04:04:40;;;;;;;8.33;6.92;;;;;;;9.01;97.26;100231.03;1846218;77;21356;-65
2021/10/14 04:07:47;;;;;;;8.83;6.90;;;;;;;8.98;96.97;100220.45;1846035;77;21813;-65
2021/10/14 04:10:53;;;;;;;8.65;6.62;;;;;;;8.96;96.78;100221.62;1846257;77;21351;-65
2021/10/14 04:13:58;;;;;;;7.87;7.08;;;;;;;8.97;96.71;100232.91;1846294;77;21829;-63
2021/10/14 04:17:03;;;;;;;9.23;6.65;;;;;;;8.96;96.57;100244.83;1824173;77;21320;-63
2021/10/14 04:20:11;;;;;;;9.80;6.95;;;;;;;8.97;96.37;100256.11;1827525;76;21187;-67
2021/10/14 04:23:17;;;;;;;8.18;5.75;;;;;;;8.96;96.13;100263.94;1807282;79;21401;-66
2021/10/14 04:26:23;;;;;;;8.55;7.22;;;;;;;8.95;96.01;100281.36;1828638;77;21747;-65
2021/10/14 04:29:30;;;;;;;8.40;6.60;;;;;;;8.97;95.86;100282.05;1838502;77;21268;-64
2021/10/14 04:32:35;;;;;;;8.03;6.78;;;;;;;8.98;95.74;100290.57;1844452;77;21395;-67
2021/10/14 04:35:44;;;;;;;8.15;6.78;;;;;;;8.98;95.53;100294.16;1831870;77;21334;-65
2021/10/14 04:38:53;;;;;;;7.35;6.15;;;;;;;8.99;95.35;100305.95;1840519;77;21374;-64
2021/10/14 04:41:59;;;;;;;8.78;6.22;;;;;;;9.00;95.16;100311.74;1837540;77;22011;-65
2021/10/14 04:45:07;;;;;;;8.45;6.92;;;;;;;9.02;95.01;100324.72;1812306;77;21333;-65
2021/10/14 04:48:13;;;;;;;8.30;6.47;;;;;;;9.02;94.81;100321.99;1810413;77;21433;-65
2021/10/14 04:51:20;;;;;;;8.33;6.30;;;;;;;9.05;94.52;100328.48;1836338;77;21874;-64
2021/10/14 04:54:25;;;;;;;9.00;6.58;;;;;;;9.07;94.39;100326.41;1837780;77;21263;-64
2021/10/14 04:57:33;;;;;;;9.58;7.80;;;;;;;9.09;94.07;100347.59;1826848;78;21339;-65
2021/10/14 05:00:40;;;;;;;8.18;6.95;;;;;;;9.10;93.77;100360.23;1832808;77;21263;-64
2021/10/14 05:03:45;;;;;;;9.18;6.97;;;;;;;9.13;93.52;100359.04;1835127;78;21203;-65
2021/10/14 05:06:53;;;;;;;8.58;7.12;;;;;;;9.14;93.34;100375.26;1800066;78;21235;-64
2021/10/14 05:10:02;;;;;;;8.95;7.28;;;;;;;9.15;93.20;100378.85;1834702;77;21257;-64
2021/10/14 05:13:07;;;;;;;10.15;8.03;;;;;;;9.15;92.85;100379.69;1817953;77;21233;-65
2021/10/14 05:16:14;;;;;;;9.65;7.17;;;;;;;9.17;92.72;100389.94;1834700;78;21284;-64
2021/10/14 05:19:22;;;;;;;9.53;7.62;;;;;;;9.17;92.42;100391.30;1833752;76;21195;-65
2021/10/14 05:22:28;;;;;;;9.65;7.47;;;;;;;9.19;92.22;100407.52;1824520;77;21216;-66
2021/10/14 05:25:35;;;;;;;13.88;7.95;;;;;;;9.21;92.03;100425.47;1839972;77;21337;-65
2021/10/14 05:28:41;;;;;;;9.95;7.92;;;;;;;9.23;91.85;100424.77;1821795;76;21693;-66
2021/10/14 05:31:47;;;;;;;11.33;8.65;;;;;;;9.25;91.51;100428.20;1820059;77;21340;-65
2021/10/14 05:34:53;;;;;;;10.63;8.20;;;;;;;9.27;91.27;100429.40;1799070;77;21294;-64
2021/10/14 05:38:01;;;;;;;12.30;8.60;;;;;;;9.28;91.05;100437.92;1836351;77;21204;-64
2021/10/14 05:41:09;;;;;;;10.20;8.43;;;;;;;9.29;90.86;100450.08;1832824;77;21208;-64
2021/10/14 05:44:15;;;;;;;11.03;8.68;;;;;;;9.34;90.81;100455.05;1834970;78;21212;-63
2021/10/14 05:47:22;;;;;;;11.15;8.83;;;;;;;9.36;90.61;100458.44;1789597;78;21318;-65
2021/10/14 05:50:29;;;;;;;10.75;8.90;;;;;;;9.39;90.40;100464.97;1834577;78;21195;-65
2021/10/14 05:53:35;;;;;;;9.15;7.80;;;;;;;9.39;90.08;100460.34;1834682;77;21169;-65
2021/10/14 05:56:42;;;;;;;10.93;8.58;;;;;;;9.39;89.77;100465.80;1834071;78;21818;-65
2021/10/14 05:59:50;;;;;;;12.33;8.05;;;;;;;9.41;89.57;100475.19;1833866;78;21718;-64
2021/10/14 06:02:57;;;;;;;9.10;7.67;;;;;;;9.43;89.41;100478.63;1834246;78;21192;-64
2021/10/14 06:06:03;;;;;;;9.88;8.08;;;;;;;9.45;89.06;100484.78;1834472;78;21588;-66
2021/10/14 06:09:10;;;;;;;15.48;10.30;;;;;;;9.45;88.93;100484.25;1835176;78;21742;-65
2021/10/14 06:12:17;;;;;;;16.23;11.45;;;;;;;9.46;88.70;100496.91;1835314;78;21314;-63
2021/10/14 06:15:25;;;;;;;12.93;9.88;;;;;;;9.48;88.54;100511.24;1835186;78;21306;-65
2021/10/14 06:18:32;;;;;;;12.53;9.60;;;;;;;9.51;88.26;100523.73;1835272;78;21213;-65
2021/10/14 06:21:42;;;;;;;12.35;8.93;;;;;;;9.50;88.00;100517.94;1833839;78;21350;-66
2021/10/14 06:24:49;;;;;;;14.63;9.73;;;;;;;9.53;87.95;100529.91;1835395;78;21731;-66
2021/10/14 06:27:54;;;;;;;12.68;9.83;;;;;;;9.54;87.76;100541.16;1835534;78;21365;-63
2021/10/14 06:31:01;;;;;;;13.22;9.40;;;;;;;9.54;87.62;100552.09;1848402;76;21339;-64
2021/10/14 06:34:08;;;;;;;16.52;10.85;;;;;;;9.53;87.49;100555.33;1829351;76;21256;-64
2021/10/14 06:37:14;;;;;;;14.25;10.48;;;;;;;9.54;87.17;100558.93;1824203;77;21385;-64
2021/10/14 06:40:22;;;;;;;15.15;10.85;;;;;;;9.53;86.99;100564.06;1800715;79;21880;-66
2021/10/14 06:43:27;;;;;;;20.75;12.68;;;;;;;9.55;86.94;100568.83;1791204;80;21792;-63
2021/10/14 06:46:34;;;;;;;17.07;11.83;;;;;;;9.55;86.72;100569.69;1790985;80;21217;-66
2021/10/14 06:49:39;;;;;;;14.83;11.45;;;;;;;9.58;86.58;100579.42;1790925;79;21527;-65
2021/10/14 06:52:47;;;;;;;14.60;10.65;;;;;;;9.57;86.11;100582.69;1771876;79;21161;-66
2021/10/14 06:55:53;;;;;;;15.45;11.78;;;;;;;9.58;86.04;100577.56;1770327;81;21717;-66
2021/10/14 06:58:59;;;;;;;17.27;12.28;;;;;;;9.59;85.77;100592.95;1778260;77;21191;-63
2021/10/14 07:02:04;;;;;;;16.85;12.28;;;;;;;9.59;85.67;100596.19;1770623;81;21184;-65
2021/10/14 07:05:10;;;;;;;18.92;12.60;;;;;;;9.58;85.54;100601.29;1771391;80;21256;-66
2021/10/14 07:08:17;;;;;;;16.75;12.20;;;;;;;9.58;85.43;100604.89;1772025;81;21319;-64
2021/10/14 07:11:29;;;;;;;17.60;13.20;;;;;;;9.57;85.23;100615.48;1771362;81;21300;-63
2021/10/14 07:14:31;;;;;;;18.35;13.55;;;;;;;9.58;85.23;100625.39;1770855;80;21215;-64
2021/10/14 07:17:35;;;;;;;18.42;13.80;;;;;;;9.59;85.12;100624.39;1771006;81;21200;-65
2021/10/14 07:20:44;;;;;;;19.30;13.88;;;;;;;9.59;84.86;100637.19;1771146;81;21255;-65
2021/10/14 07:23:50;;;;;;;19.25;14.28;;;;;;;9.54;84.47;100641.78;1798352;79;21374;-65
2021/10/14 07:26:57;;;;;;;18.52;13.98;;;;;;;9.52;84.55;100642.45;1810760;79;21385;-64
2021/10/14 07:30:03;;;;;;;20.05;14.35;;;;;;;9.54;84.50;100653.21;1811104;79;21716;-65
2021/10/14 07:33:09;;;;;;;20.82;14.43;;;;;;;9.56;84.38;100653.91;1810768;79;22131;-63
2021/10/14 07:36:18;;;;;;;20.23;14.28;;;;;;;9.59;84.35;100659.91;1810689;79;21397;-65
2021/10/14 07:39:23;;;;;;;20.62;14.95;;;;;;;9.63;84.30;100665.39;1810804;79;21697;-68
2021/10/14 07:42:29;;;;;;;22.93;14.68;;;;;;;9.67;84.12;100672.77;1810489;79;21326;-66
2021/10/14 07:45:35;;;;;;;21.07;15.15;;;;;;;9.68;84.03;100680.80;1810421;79;21354;-65
2021/10/14 07:48:42;;;;;;;18.87;14.28;;;;;;;9.72;84.00;100686.27;1810876;79;21365;-64
2021/10/14 07:51:48;;;;;;;22.35;15.55;;;;;;;9.77;84.06;100683.91;1810181;79;21319;-66
2021/10/14 07:54:56;;;;;;;21.48;14.87;;;;;;;9.81;83.92;100694.02;1810750;79;21397;-62
2021/10/14 07:58:03;;;;;;;22.67;15.58;;;;;;;9.84;83.81;100695.05;1812422;77;22131;-64
2021/10/14 08:01:11;;;;;;;23.45;16.77;;;;;;;9.90;83.79;100702.09;1778213;80;21393;-65
2021/10/14 08:04:21;;;;;;;24.00;15.55;;;;;;;9.99;83.51;100710.67;1779604;80;21365;-67
2021/10/14 08:07:28;;;;;;;27.85;17.48;;;;;;;10.08;83.02;100711.11;1736618;82;21303;-67
2021/10/14 08:10:36;;;;;;;25.40;16.45;;;;;;;10.15;82.54;100720.85;1748759;79;21425;-66
2021/10/14 08:13:41;;;;;;;25.35;17.70;;;;;;;10.21;82.36;100729.27;1706742;84;21331;-65
2021/10/14 08:16:48;;;;;;;26.80;17.80;;;;;;;10.26;81.48;100736.97;1736304;82;21702;-64
2021/10/14 08:19:53;;;;;;;29.77;16.45;;;;;;;10.24;81.05;100764.50;1743632;82;21405;-64
2021/10/14 08:23:02;;;;;;;22.25;14.87;;;;;;;10.21;80.56;100760.73;1789159;78;21704;-65
2021/10/14 08:26:11;;;;;;;21.73;15.58;;;;;;;10.24;80.39;100761.77;1831740;78;22840;-63
2021/10/14 08:29:19;;;;;;;26.90;16.77;;;;;;;10.30;80.16;100766.59;1811159;78;21393;-65
2021/10/14 08:32:25;;;;;;;25.75;17.00;;;;;;;10.37;79.97;100777.22;1840504;77;21231;-65
2021/10/14 08:35:35;;;;;;;26.35;17.55;;;;;;;10.41;79.75;100778.62;1801642;79;21733;-63
2021/10/14 08:38:36;;;;;;;23.10;15.50;;;;;;;10.41;79.42;100793.67;1832880;77;21307;-65
2021/10/14 08:41:46;;;;;;;22.17;14.70;;;;;;;10.39;79.07;100790.23;1791241;79;21298;-65
2021/10/14 08:44:50;;;;;;;24.80;16.42;;;;;;;10.35;78.72;100806.62;1788015;79;21226;-65
2021/10/14 08:47:56;;;;;;;22.35;14.20;;;;;;;10.33;78.47;100810.55;1829974;77;21192;-66
2021/10/14 08:51:01;;;;;;;21.68;13.62;;;;;;;10.34;78.07;100817.73;1802186;77;21191;-64
2021/10/14 08:54:08;;;;;;;19.45;13.25;;;;;;;10.38;77.94;100815.89;1826839;77;21219;-66
2021/10/14 08:57:16;;;;;;;20.85;13.75;;;;;;;10.51;77.92;100832.70;1830467;77;21195;-64
2021/10/14 09:00:21;;;;;;;18.75;13.60;;;;;;;10.63;77.36;100829.16;1840631;77;21239;-64
2021/10/14 09:03:39;;;;;;;24.92;14.68;;;;;;;10.69;76.64;100824.92;1834112;77;22226;-65
2021/10/14 09:06:45;;;;;;;20.40;14.50;;;;;;;10.72;76.17;100824.05;1830295;77;21869;-64
2021/10/14 09:09:51;;;;;;;22.07;14.13;;;;;;;10.78;76.29;100834.36;1834921;78;21242;-66
2021/10/14 09:12:57;;;;;;;17.27;13.00;;;;;;;10.88;75.91;100838.33;1848567;77;21314;-64
2021/10/14 09:16:05;;;;;;;19.12;13.60;;;;;;;10.98;75.76;100846.73;1804318;78;21767;-65
2021/10/14 09:19:29;;;;;;;18.50;13.22;;;;;;;11.11;75.74;100847.12;1788392;79;21188;-64
2021/10/14 09:22:34;;;;;;;18.23;13.40;;;;;;;11.22;75.21;100853.65;1805581;79;21195;-64
2021/10/14 09:25:51;;;;;;;23.20;14.80;;;;;;;11.29;74.45;100860.16;1822333;78;21871;-64
2021/10/14 09:28:55;;;;;;;21.45;14.30;;;;;;;11.35;74.04;100854.52;1778048;79;21206;-65
2021/10/14 09:32:05;;;;;;;20.35;14.15;;;;;;;11.35;73.57;100853.16;1834749;78;21287;-67
2021/10/14 09:35:13;;;;;;;20.00;13.55;;;;;;;11.40;73.43;100860.36;1784969;80;21229;-64
2021/10/14 09:38:19;;;;;;;22.98;13.85;;;;;;;11.43;73.18;100862.22;1785597;79;21252;-64
2021/10/14 09:41:28;;;;;;;21.77;13.43;;;;;;;11.50;72.07;100868.75;1784100;79;21417;-65
2021/10/14 09:44:33;;;;;;;21.12;14.50;;;;;;;11.48;71.99;100871.34;1790483;79;21200;-66
2021/10/14 09:47:39;;;;;;;22.52;15.53;;;;;;;11.47;71.97;100869.60;1774731;80;21192;-64
2021/10/14 09:50:49;;;;;;;20.15;14.13;;;;;;;11.51;71.92;100880.05;1777315;80;21367;-65
2021/10/14 09:53:55;;;;;;;19.05;14.13;;;;;;;11.59;72.07;100877.33;1811187;79;21176;-65
2021/10/14 09:57:02;;;;;;;25.62;15.23;;;;;;;11.68;71.99;100893.31;1753492;80;21332;-65
2021/10/14 10:00:08;;;;;;;20.62;13.93;;;;;;;11.74;71.57;100898.11;1810880;79;21202;-66
2021/10/14 10:03:25;;;;;;;17.52;12.33;;;;;;;11.78;71.24;100907.19;1777293;80;21340;-65
2021/10/14 10:06:36;;;;;;;16.32;12.23;;;;;;;11.81;70.38;100910.12;1810744;79;21679;-65
2021/10/14 10:09:45;;;;;;;19.12;12.73;;;;;;;11.77;69.60;100910.11;1720937;83;21232;-65
2021/10/14 10:12:53;;;;;;;17.90;11.80;;;;;;;11.66;69.87;100907.20;1747361;80;21572;-65
2021/10/14 10:15:59;;;;;;;16.80;12.10;;;;;;;11.67;70.19;100904.79;1767228;80;21260;-66
2021/10/14 10:19:07;;;;;;;17.62;10.53;;;;;;;11.76;70.16;100915.27;1760613;81;21632;-65
2021/10/14 10:22:15;;;;;;;16.77;11.50;;;;;;;11.73;69.17;100919.72;1833632;78;21200;-62
2021/10/14 10:25:34;;;;;;;25.00;15.10;;;;;;;11.61;68.88;100912.80;1800790;78;21655;-65
2021/10/14 10:28:46;;;;;;;17.27;12.30;;;;;;;11.52;69.21;100916.06;1833733;77;21188;-67
2021/10/14 10:32:00;;;;;;;14.90;10.72;;;;;;;11.42;69.65;100932.30;1833872;77;21311;-66
2021/10/14 10:35:06;;;;;;;15.20;10.90;;;;;;;11.32;70.30;100931.08;1825319;78;21354;-64
2021/10/14 10:38:32;;;;;;;15.78;9.85;;;;;;;11.50;70.40;100943.28;1832954;78;21177;-65
2021/10/14 10:41:39;;;;;;;12.70;9.03;;;;;;;11.61;69.23;100944.33;1788310;79;21214;-64
2021/10/14 10:44:53;;;;;;;17.30;9.25;;;;;;;11.56;68.37;100954.98;1784409;79;21210;-64
2021/10/14 10:48:06;;;;;;;15.05;8.50;;;;;;;11.50;67.79;100953.75;1805601;78;21153;-65
2021/10/14 10:51:10;;;;;;;14.75;8.53;;;;;;;11.56;67.11;100947.59;1834474;77;21188;-65
2021/10/14 10:54:27;;;;;;;11.93;8.28;;;;;;;11.60;66.38;100948.11;1835424;76;21164;-62
2021/10/14 10:57:57;;;;;;;14.53;8.78;;;;;;;11.57;66.02;100960.80;1837221;77;21281;-65
2021/10/14 11:01:04;;;;;;;11.85;8.25;;;;;;;11.63;66.28;100967.00;1803753;79;21243;-64
2021/10/14 11:04:13;;;;;;;15.55;8.93;;;;;;;11.77;66.02;100963.09;1799677;79;21251;-63
2021/10/14 11:07:21;;;;;;;14.47;8.68;;;;;;;11.80;65.95;100966.86;1804313;76;21707;-64
2021/10/14 11:10:37;;;;;;;11.45;8.33;;;;;;;11.78;65.89;100972.19;1842513;76;21189;-63
2021/10/14 11:13:47;;;;;;;11.68;7.85;;;;;;;11.82;65.86;100966.70;1826566;76;21177;-64
2021/10/14 11:16:53;;;;;;;12.45;7.83;;;;;;;11.94;65.08;100972.19;1781676;80;21687;-64
2021/10/14 11:20:15;;;;;;;14.15;8.15;;;;;;;12.03;64.53;100970.64;1780982;80;21225;-64
2021/10/14 11:23:20;;;;;;;9.93;7.72;;;;;;;12.10;64.27;100981.80;1781148;80;22076;-62
2021/10/14 11:26:35;;;;;;;15.38;8.15;;;;;;;12.03;63.61;100973.92;1803991;77;21251;-63
2021/10/14 11:29:39;;;;;;;17.95;7.92;;;;;;;11.92;63.46;100985.23;1822462;78;21671;-65
2021/10/14 11:32:54;;;;;;;12.55;7.33;;;;;;;11.83;63.05;100989.84;1817441;78;21185;-66
2021/10/14 11:35:52;;;;;;;17.75;8.40;;;;;;;11.78;63.15;101005.11;1813750;79;21195;-64
2021/10/14 11:39:16;;;;;;;13.10;7.58;;;;;;;11.75;62.77;100999.42;1787195;77;21237;-65
2021/10/14 11:42:28;;;;;;;10.30;6.37;;;;;;;11.80;62.77;101000.28;1817130;77;21235;-65
2021/10/14 11:45:35;;;;;;;9.83;5.45;;;;;;;11.95;62.28;101000.85;1805671;78;21208;-64
2021/10/14 11:48:42;;;;;;;9.60;5.55;;;;;;;12.21;62.17;100999.84;1804043;79;21730;-66
2021/10/14 11:51:50;;;;;;;7.70;4.72;;;;;;;12.53;61.15;101004.78;1835692;77;21335;-64
2021/10/14 11:54:56;;;;;;;10.28;5.42;;;;;;;12.77;60.61;101009.38;1832160;77;21217;-65
2021/10/14 11:58:07;;;;;;;8.80;4.28;;;;;;;12.90;58.69;101012.45;1803097;79;21195;-65
2021/10/14 12:01:18;;;;;;;8.55;3.80;;;;;;;13.10;58.31;101021.53;1826339;77;21761;-66
2021/10/14 12:04:26;;;;;;;5.50;3.15;;;;;;;13.33;57.68;101016.96;1870777;76;21165;-64
2021/10/14 12:07:35;;;;;;;5.75;3.25;;;;;;;13.33;57.26;101030.72;1870540;76;21314;-65
2021/10/14 12:10:54;;;;;;;7.78;2.75;;;;;;;13.19;56.15;101042.45;1870713;76;21330;-65
2021/10/14 12:14:09;;;;;;;5.45;2.67;;;;;;;13.00;55.81;101048.34;1871364;76;21863;-65
2021/10/14 12:17:24;;;;;;;5.85;3.40;;;;;;;12.85;54.96;101043.72;1821832;78;21176;-65
2021/10/14 12:20:34;;;;;;;5.67;3.17;;;;;;;12.92;54.64;101062.07;1814688;77;21346;-66
2021/10/14 12:23:40;;;;;;;8.20;2.80;;;;;;;12.88;54.32;101076.34;1788969;80;21747;-66
2021/10/14 12:26:53;;;;;;;4.28;2.67;;;;;;;12.78;54.63;101071.56;1785840;80;21889;-65
2021/10/14 12:29:58;;;;;;;3.42;2.77;;;;;;;12.76;54.69;101085.47;1786156;78;21217;-62
2021/10/14 12:33:22;;;;;;;5.70;2.65;;;;;;;12.82;54.94;101071.03;1807897;78;21549;-65
2021/10/14 12:36:28;;;;;;;5.45;3.08;;;;;;;12.88;54.84;101085.45;1802246;79;21162;-64
2021/10/14 12:39:34;;;;;;;4.85;2.65;;;;;;;12.83;54.71;101089.23;1801935;79;21730;-65
2021/10/14 12:42:55;;;;;;;3.70;2.40;;;;;;;12.70;54.71;101083.93;1809130;79;21807;-67
2021/10/14 12:46:10;;;;;;;6.37;2.75;;;;;;;12.53;54.75;101089.92;1805996;78;21181;-64
2021/10/14 12:52:26;;;;;;;9.23;4.22;;;;;;;12.18;55.64;101095.72;1782355;80;21181;-64
2021/10/14 12:55:35;;;;;;;8.15;3.40;;;;;;;12.11;56.39;101086.96;1782518;80;21738;-63
2021/10/14 12:58:40;;;;;;;5.10;2.87;;;;;;;12.19;56.98;101098.83;1783839;79;21177;-65
2021/10/14 13:01:50;;;;;;;5.55;2.80;;;;;;;12.43;56.62;101098.83;1782851;80;21185;-64
2021/10/14 13:04:56;;;;;;;4.25;2.85;;;;;;;12.76;56.26;101104.70;1800518;79;21199;-64
2021/10/14 13:08:04;;;;;;;3.95;2.60;;;;;;;13.05;54.50;101105.03;1802776;79;21173;-66
2021/10/14 13:11:13;;;;;;;3.40;2.60;;;;;;;13.28;53.76;101103.29;1803669;79;21220;-62
2021/10/14 13:14:20;;;;;;;3.98;2.42;;;;;;;13.52;52.90;101114.73;1802803;79;21223;-62
2021/10/14 13:17:25;;;;;;;5.25;2.52;;;;;;;13.60;51.78;101121.58;1810955;79;21334;-62
2021/10/14 13:20:31;;;;;;;6.65;2.52;;;;;;;13.47;51.70;101126.27;1802801;79;21200;-62
2021/10/14 13:23:40;;;;;;;4.33;2.90;;;;;;;13.30;52.12;101131.98;1801433;79;21338;-63
2021/10/14 13:26:48;;;;;;;5.28;2.72;;;;;;;13.22;52.25;101131.45;1785209;78;21914;-65
2021/10/14 13:29:55;;;;;;;4.78;3.02;;;;;;;13.23;52.68;101123.58;1778098;79;21205;-65
2021/10/14 13:33:01;;;;;;;6.17;2.80;;;;;;;13.22;53.01;101130.09;1771810;79;21354;-63
2021/10/14 13:36:08;;;;;;;4.25;2.40;;;;;;;13.20;53.17;101128.55;1778909;79;21370;-63
2021/10/14 13:39:16;;;;;;;4.55;2.75;;;;;;;13.16;53.02;101129.41;1789626;79;21711;-64
2021/10/14 13:42:28;;;;;;;5.83;3.72;;;;;;;13.11;52.90;101142.82;1775891;79;21319;-63
2021/10/14 13:45:31;;;;;;;5.72;4.50;;;;;;;13.05;52.90;101141.31;1782488;79;21244;-64
2021/10/14 13:48:36;;;;;;;5.05;3.72;;;;;;;12.95;52.82;101148.33;1802360;79;21166;-65
2021/10/14 13:51:41;;;;;;;5.53;3.45;;;;;;;12.82;52.30;101154.84;1793873;79;21215;-64
2021/10/14 13:54:48;;;;;;;7.05;3.52;;;;;;;12.69;52.34;101153.12;1781480;79;21914;-64
2021/10/14 13:57:56;;;;;;;4.55;3.30;;;;;;;12.62;52.51;101150.69;1748514;82;21350;-65
2021/10/14 14:01:02;;;;;;;3.80;2.92;;;;;;;12.52;52.61;101161.50;1747953;82;21875;-65
2021/10/14 14:04:10;;;;;;;5.08;3.10;;;;;;;12.43;52.73;101156.50;1796869;78;21350;-64
2021/10/14 14:07:16;;;;;;;4.42;2.95;;;;;;;12.38;52.66;101160.80;1794278;79;21358;-65
2021/10/14 14:10:21;;;;;;;7.53;4.10;;;;;;;12.33;53.19;101165.42;1790288;78;21255;-64
2021/10/14 14:13:27;;;;;;;5.40;3.50;;;;;;;12.26;53.45;101160.25;1797701;78;21680;-65
2021/10/14 14:16:35;;;;;;;6.62;4.42;;;;;;;12.20;54.04;101162.80;1764938;80;21806;-66
2021/10/14 14:19:42;;;;;;;6.40;4.12;;;;;;;12.08;54.53;101168.59;1764660;81;21350;-65
2021/10/14 14:22:48;;;;;;;7.45;4.90;;;;;;;11.97;55.13;101163.41;1771976;80;21393;-64
2021/10/14 14:25:55;;;;;;;7.58;4.40;;;;;;;11.86;55.61;101168.36;1795868;79;21382;-62
2021/10/14 14:29:00;;;;;;;10.23;6.80;;;;;;;11.77;56.04;101169.33;1800248;77;21770;-63
2021/10/14 14:32:08;;;;;;;12.43;8.10;;;;;;;11.67;56.59;101166.71;1786935;79;21639;-63
2021/10/14 14:35:15;;;;;;;7.37;4.90;;;;;;;11.59;57.12;101169.91;1737596;80;21248;-64